sensor_id;sensor_type;location;lat;lon;timestamp;pressure;altitude;pressure_sealevel;temperature;humidity
78016;BME280;67223;51.102;5.882;2023-10-09T00:01:48;102079.72;;;16.23;100.00
78016;BME280;67223;51.102;5.882;2023-10-09T00:04:13;102069.19;;;16.20;100.00
78016;BME280;67223;51.102;5.882;2023-10-09T00:06:41;102066.28;;;16.12;100.00
78016;BME280;67223;51.102;5.882;2023-10-09T00:09:07;102073.63;;;16.10;100.00
78016;BME280;67223;51.102;5.882;2023-10-09T00:11:49;102077.31;;;16.09;100.00
78016;BME280;67223;51.102;5.882;2023-10-09T00:14:21;102076.84;;;16.04;100.00
78016;BME280;67223;51.102;5.882;2023-10-09T00:16:47;102074.53;;;16.00;100.00
78016;BME280;67223;51.102;5.882;2023-10-09T00:19:14;102069.69;;;15.93;100.00
78016;BME280;67223;51.102;5.882;2023-10-09T00:21:46;102065.41;;;15.91;100.00
78016;BME280;67223;51.102;5.882;2023-10-09T00:24:12;102071.53;;;15.93;100.00
78016;BME280;67223;51.102;5.882;2023-10-09T00:26:50;102071.06;;;15.88;100.00
78016;BME280;67223;51.102;5.882;2023-10-09T00:29:16;102064.22;;;15.84;100.00
78016;BME280;67223;51.102;5.882;2023-10-09T00:31:52;102074.16;;;15.83;100.00
78016;BME280;67223;51.102;5.882;2023-10-09T00:34:28;102063.88;;;15.77;100.00
78016;BME280;67223;51.102;5.882;2023-10-09T00:36:54;102060.72;;;15.72;100.00
78016;BME280;67223;51.102;5.882;2023-10-09T00:39:21;102070.13;;;15.78;100.00
78016;BME280;67223;51.102;5.882;2023-10-09T00:42:08;102056.19;;;15.73;100.00
78016;BME280;67223;51.102;5.882;2023-10-09T00:44:38;102057.91;;;15.74;100.00
78016;BME280;67223;51.102;5.882;2023-10-09T00:47:09;102055.72;;;15.68;100.00
78016;BME280;67223;51.102;5.882;2023-10-09T00:49:48;102045.03;;;15.77;100.00
78016;BME280;67223;51.102;5.882;2023-10-09T00:52:15;102051.13;;;15.79;100.00
78016;BME280;67223;51.102;5.882;2023-10-09T00:54:48;102045.63;;;15.81;100.00
78016;BME280;67223;51.102;5.882;2023-10-09T00:57:18;102035.69;;;15.81;100.00
78016;BME280;67223;51.102;5.882;2023-10-09T00:59:48;102032.94;;;15.72;100.00
78016;BME280;67223;51.102;5.882;2023-10-09T01:02:27;102031.09;;;15.72;100.00
78016;BME280;67223;51.102;5.882;2023-10-09T01:05:07;102031.44;;;15.79;100.00
78016;BME280;67223;51.102;5.882;2023-10-09T01:07:52;102021.72;;;15.87;100.00
78016;BME280;67223;51.102;5.882;2023-10-09T01:10:23;102017.19;;;15.88;100.00
78016;BME280;67223;51.102;5.882;2023-10-09T01:12:50;102012.13;;;15.94;100.00
78016;BME280;67223;51.102;5.882;2023-10-09T01:15:20;102014.69;;;15.96;100.00
78016;BME280;67223;51.102;5.882;2023-10-09T01:18:01;102008.66;;;16.04;100.00
78016;BME280;67223;51.102;5.882;2023-10-09T01:20:27;102012.19;;;16.04;100.00
78016;BME280;67223;51.102;5.882;2023-10-09T01:22:56;102017.06;;;16.10;100.00
78016;BME280;67223;51.102;5.882;2023-10-09T01:25:21;102008.50;;;16.05;100.00
78016;BME280;67223;51.102;5.882;2023-10-09T01:27:47;102000.56;;;16.04;100.00
78016;BME280;67223;51.102;5.882;2023-10-09T01:30:12;102009.25;;;16.07;100.00
78016;BME280;67223;51.102;5.882;2023-10-09T01:32:39;102010.41;;;16.14;100.00
78016;BME280;67223;51.102;5.882;2023-10-09T01:35:06;102004.03;;;16.15;100.00
78016;BME280;67223;51.102;5.882;2023-10-09T01:37:40;102002.94;;;16.18;100.00
78016;BME280;67223;51.102;5.882;2023-10-09T01:40:08;101997.78;;;16.15;100.00
78016;BME280;67223;51.102;5.882;2023-10-09T01:43:00;101991.25;;;16.08;100.00
78016;BME280;67223;51.102;5.882;2023-10-09T01:45:29;101992.56;;;16.13;100.00
78016;BME280;67223;51.102;5.882;2023-10-09T01:47:54;102009.88;;;16.20;100.00
78016;BME280;67223;51.102;5.882;2023-10-09T01:50:20;102005.81;;;16.26;100.00
78016;BME280;67223;51.102;5.882;2023-10-09T01:52:56;102017.44;;;16.26;100.00
78016;BME280;67223;51.102;5.882;2023-10-09T01:55:25;102024.28;;;16.30;100.00
78016;BME280;67223;51.102;5.882;2023-10-09T01:57:59;102022.38;;;16.21;100.00
78016;BME280;67223;51.102;5.882;2023-10-09T02:00:31;102023.13;;;16.23;100.00
78016;BME280;67223;51.102;5.882;2023-10-09T02:02:56;102022.38;;;16.21;100.00
78016;BME280;67223;51.102;5.882;2023-10-09T02:05:28;102032.69;;;16.16;100.00
78016;BME280;67223;51.102;5.882;2023-10-09T02:07:58;102032.56;;;16.18;100.00
78016;BME280;67223;51.102;5.882;2023-10-09T02:10:24;102022.19;;;16.13;100.00
78016;BME280;67223;51.102;5.882;2023-10-09T02:12:50;102025.28;;;16.09;100.00
78016;BME280;67223;51.102;5.882;2023-10-09T02:15:29;102021.59;;;16.10;100.00
78016;BME280;67223;51.102;5.882;2023-10-09T02:18:16;102020.25;;;16.04;100.00
78016;BME280;67223;51.102;5.882;2023-10-09T02:20:46;102026.00;;;16.11;100.00
78016;BME280;67223;51.102;5.882;2023-10-09T02:23:13;102017.19;;;16.09;100.00
78016;BME280;67223;51.102;5.882;2023-10-09T02:25:40;102020.41;;;16.03;100.00
78016;BME280;67223;51.102;5.882;2023-10-09T02:28:09;102024.94;;;16.02;100.00
78016;BME280;67223;51.102;5.882;2023-10-09T02:30:43;102017.25;;;15.98;100.00
78016;BME280;67223;51.102;5.882;2023-10-09T02:33:13;102021.22;;;15.93;100.00
78016;BME280;67223;51.102;5.882;2023-10-09T02:35:44;102015.16;;;16.01;100.00
78016;BME280;67223;51.102;5.882;2023-10-09T02:38:09;102013.03;;;16.05;100.00
78016;BME280;67223;51.102;5.882;2023-10-09T02:40:40;102014.16;;;16.02;100.00
78016;BME280;67223;51.102;5.882;2023-10-09T02:43:24;102011.59;;;16.01;100.00
78016;BME280;67223;51.102;5.882;2023-10-09T02:45:51;102012.50;;;15.90;100.00
78016;BME280;67223;51.102;5.882;2023-10-09T02:48:17;102014.34;;;15.89;100.00
78016;BME280;67223;51.102;5.882;2023-10-09T02:50:46;102004.75;;;15.97;100.00
78016;BME280;67223;51.102;5.882;2023-10-09T02:53:12;102001.03;;;15.88;100.00
78016;BME280;67223;51.102;5.882;2023-10-09T02:55:44;102009.09;;;15.88;100.00
78016;BME280;67223;51.102;5.882;2023-10-09T02:58:29;102017.31;;;15.86;100.00
78016;BME280;67223;51.102;5.882;2023-10-09T03:00:58;102001.88;;;15.88;100.00
78016;BME280;67223;51.102;5.882;2023-10-09T03:03:23;101998.34;;;15.88;100.00
78016;BME280;67223;51.102;5.882;2023-10-09T03:05:50;102003.16;;;15.94;100.00
78016;BME280;67223;51.102;5.882;2023-10-09T03:08:16;101996.81;;;15.95;100.00
78016;BME280;67223;51.102;5.882;2023-10-09T03:10:44;101993.72;;;16.00;100.00
78016;BME280;67223;51.102;5.882;2023-10-09T03:13:09;101998.00;;;16.02;100.00
78016;BME280;67223;51.102;5.882;2023-10-09T03:15:35;101991.63;;;16.03;100.00
78016;BME280;67223;51.102;5.882;2023-10-09T03:18:03;101982.69;;;16.03;100.00
78016;BME280;67223;51.102;5.882;2023-10-09T03:20:31;101985.22;;;16.04;100.00
78016;BME280;67223;51.102;5.882;2023-10-09T03:22:57;101985.78;;;15.98;100.00
78016;BME280;67223;51.102;5.882;2023-10-09T03:25:23;101977.75;;;15.87;100.00
78016;BME280;67223;51.102;5.882;2023-10-09T03:27:50;101983.66;;;15.81;100.00
78016;BME280;67223;51.102;5.882;2023-10-09T03:30:18;101987.50;;;15.78;100.00
78016;BME280;67223;51.102;5.882;2023-10-09T03:32:51;101984.00;;;15.87;100.00
78016;BME280;67223;51.102;5.882;2023-10-09T03:35:18;101978.34;;;15.90;100.00
78016;BME280;67223;51.102;5.882;2023-10-09T03:37:59;101974.47;;;15.83;100.00
78016;BME280;67223;51.102;5.882;2023-10-09T03:40:41;101971.19;;;15.80;100.00
78016;BME280;67223;51.102;5.882;2023-10-09T03:43:08;101973.00;;;15.79;100.00
78016;BME280;67223;51.102;5.882;2023-10-09T03:45:36;101981.84;;;15.81;100.00
78016;BME280;67223;51.102;5.882;2023-10-09T03:48:03;101988.94;;;15.82;100.00
78016;BME280;67223;51.102;5.882;2023-10-09T03:50:46;101994.78;;;15.87;100.00
78016;BME280;67223;51.102;5.882;2023-10-09T03:53:13;101988.03;;;15.93;100.00
78016;BME280;67223;51.102;5.882;2023-10-09T03:55:39;101994.00;;;15.97;100.00
78016;BME280;67223;51.102;5.882;2023-10-09T03:58:08;101994.72;;;15.99;100.00
78016;BME280;67223;51.102;5.882;2023-10-09T04:03:12;101980.25;;;16.00;100.00
78016;BME280;67223;51.102;5.882;2023-10-09T04:05:39;101976.97;;;15.96;100.00
78016;BME280;67223;51.102;5.882;2023-10-09T04:08:09;101988.03;;;15.93;100.00
78016;BME280;67223;51.102;5.882;2023-10-09T04:10:54;101976.00;;;15.97;100.00
78016;BME280;67223;51.102;5.882;2023-10-09T04:13:26;101980.06;;;15.91;100.00
78016;BME280;67223;51.102;5.882;2023-10-09T04:15:59;101975.78;;;15.89;100.00
78016;BME280;67223;51.102;5.882;2023-10-09T04:18:27;101973.69;;;15.92;100.00
78016;BME280;67223;51.102;5.882;2023-10-09T04:20:58;101965.44;;;15.94;100.00
78016;BME280;67223;51.102;5.882;2023-10-09T04:23:42;101975.88;;;15.99;100.00
78016;BME280;67223;51.102;5.882;2023-10-09T04:26:34;101978.56;;;15.99;100.00
78016;BME280;67223;51.102;5.882;2023-10-09T04:29:00;101980.53;;;15.97;100.00
78016;BME280;67223;51.102;5.882;2023-10-09T04:31:27;101976.38;;;15.92;100.00
78016;BME280;67223;51.102;5.882;2023-10-09T04:33:58;101966.00;;;15.88;100.00
78016;BME280;67223;51.102;5.882;2023-10-09T04:36:42;101957.94;;;15.88;100.00
78016;BME280;67223;51.102;5.882;2023-10-09T04:39:15;101970.72;;;15.96;100.00
78016;BME280;67223;51.102;5.882;2023-10-09T04:41:42;101963.91;;;15.91;100.00
78016;BME280;67223;51.102;5.882;2023-10-09T04:44:08;101964.22;;;15.98;100.00
78016;BME280;67223;51.102;5.882;2023-10-09T04:46:51;101964.22;;;15.98;100.00
78016;BME280;67223;51.102;5.882;2023-10-09T04:49:35;101960.81;;;15.96;100.00
78016;BME280;67223;51.102;5.882;2023-10-09T04:52:17;101951.75;;;15.97;100.00
78016;BME280;67223;51.102;5.882;2023-10-09T04:54:55;101941.09;;;15.96;100.00
78016;BME280;67223;51.102;5.882;2023-10-09T04:57:42;101948.53;;;16.03;100.00
78016;BME280;67223;51.102;5.882;2023-10-09T05:00:18;101938.19;;;16.08;100.00
78016;BME280;67223;51.102;5.882;2023-10-09T05:02:53;101941.75;;;16.09;100.00
78016;BME280;67223;51.102;5.882;2023-10-09T05:05:26;101934.41;;;16.20;100.00
78016;BME280;67223;51.102;5.882;2023-10-09T05:08:17;101922.78;;;16.20;100.00
78016;BME280;67223;51.102;5.882;2023-10-09T05:10:43;101936.81;;;16.14;100.00
78016;BME280;67223;51.102;5.882;2023-10-09T05:13:29;101932.84;;;16.18;100.00
78016;BME280;67223;51.102;5.882;2023-10-09T05:18:30;101941.63;;;16.20;100.00
78016;BME280;67223;51.102;5.882;2023-10-09T05:21:02;101970.59;;;16.78;100.00
78016;BME280;67223;51.102;5.882;2023-10-09T05:23:47;101975.16;;;16.78;100.00
78016;BME280;67223;51.102;5.882;2023-10-09T05:26:36;101966.44;;;16.44;100.00
78016;BME280;67223;51.102;5.882;2023-10-09T05:29:21;101954.84;;;16.44;100.00
78016;BME280;67223;51.102;5.882;2023-10-09T05:31:47;101942.41;;;16.31;100.00
78016;BME280;67223;51.102;5.882;2023-10-09T05:34:25;101952.94;;;16.65;100.00
78016;BME280;67223;51.102;5.882;2023-10-09T05:37:20;101946.22;;;16.29;100.00
78016;BME280;67223;51.102;5.882;2023-10-09T05:39:58;101949.16;;;16.16;100.00
78016;BME280;67223;51.102;5.882;2023-10-09T05:42:28;101952.53;;;16.09;100.00
78016;BME280;67223;51.102;5.882;2023-10-09T05:45:06;101956.31;;;16.06;100.00
78016;BME280;67223;51.102;5.882;2023-10-09T05:47:51;101969.72;;;16.17;100.00
78016;BME280;67223;51.102;5.882;2023-10-09T05:50:23;101977.88;;;16.27;100.00
78016;BME280;67223;51.102;5.882;2023-10-09T05:52:50;101985.03;;;16.38;100.00
78016;BME280;67223;51.102;5.882;2023-10-09T05:55:23;101977.28;;;16.23;100.00
78016;BME280;67223;51.102;5.882;2023-10-09T05:57:52;101974.84;;;16.20;100.00
78016;BME280;67223;51.102;5.882;2023-10-09T06:00:36;101959.03;;;16.06;100.00
78016;BME280;67223;51.102;5.882;2023-10-09T06:03:21;101978.75;;;16.07;100.00
78016;BME280;67223;51.102;5.882;2023-10-09T06:05:47;101984.69;;;16.31;100.00
78016;BME280;67223;51.102;5.882;2023-10-09T06:08:22;101971.16;;;16.21;100.00
78016;BME280;67223;51.102;5.882;2023-10-09T06:11:13;101966.25;;;16.06;100.00
78016;BME280;67223;51.102;5.882;2023-10-09T06:13:58;101959.88;;;16.07;100.00
78016;BME280;67223;51.102;5.882;2023-10-09T06:16:34;101975.97;;;16.18;100.00
78016;BME280;67223;51.102;5.882;2023-10-09T06:19:25;102009.19;;;16.18;100.00
78016;BME280;67223;51.102;5.882;2023-10-09T06:22:00;102022.38;;;16.21;100.00
78016;BME280;67223;51.102;5.882;2023-10-09T06:24:29;102015.03;;;16.23;100.00
78016;BME280;67223;51.102;5.882;2023-10-09T06:27:21;102022.44;;;16.31;100.00
78016;BME280;67223;51.102;5.882;2023-10-09T06:29:57;102027.09;;;16.29;100.00
78016;BME280;67223;51.102;5.882;2023-10-09T06:32:43;102034.34;;;16.28;100.00
78016;BME280;67223;51.102;5.882;2023-10-09T06:35:33;102029.31;;;16.24;100.00
78016;BME280;67223;51.102;5.882;2023-10-09T06:37:59;102044.91;;;16.20;100.00
78016;BME280;67223;51.102;5.882;2023-10-09T06:40:31;102046.16;;;16.16;100.00
78016;BME280;67223;51.102;5.882;2023-10-09T06:43:16;102060.09;;;16.21;100.00
78016;BME280;67223;51.102;5.882;2023-10-09T06:45:41;102057.06;;;16.15;100.00
78016;BME280;67223;51.102;5.882;2023-10-09T06:48:13;102060.63;;;16.15;100.00
78016;BME280;67223;51.102;5.882;2023-10-09T06:50:57;102069.34;;;16.19;100.00
78016;BME280;67223;51.102;5.882;2023-10-09T06:53:42;102077.03;;;16.23;100.00
78016;BME280;67223;51.102;5.882;2023-10-09T06:56:24;102079.44;;;16.26;100.00
78016;BME280;67223;51.102;5.882;2023-10-09T06:58:56;102061.09;;;16.20;100.00
78016;BME280;67223;51.102;5.882;2023-10-09T07:01:26;102063.09;;;16.18;100.00
78016;BME280;67223;51.102;5.882;2023-10-09T07:04:04;102053.75;;;16.22;100.00
78016;BME280;67223;51.102;5.882;2023-10-09T07:06:56;102050.19;;;16.22;100.00
78016;BME280;67223;51.102;5.882;2023-10-09T07:09:22;102030.97;;;16.15;100.00
78016;BME280;67223;51.102;5.882;2023-10-09T07:11:52;102046.44;;;16.13;100.00
78016;BME280;67223;51.102;5.882;2023-10-09T07:14:20;102045.50;;;16.45;100.00
78016;BME280;67223;51.102;5.882;2023-10-09T07:17:06;102035.91;;;16.31;100.00
78016;BME280;67223;51.102;5.882;2023-10-09T07:19:48;102036.44;;;16.25;100.00
78016;BME280;67223;51.102;5.882;2023-10-09T07:22:14;102037.81;;;16.19;100.00
78016;BME280;67223;51.102;5.882;2023-10-09T07:24:56;102032.41;;;16.19;100.00
78016;BME280;67223;51.102;5.882;2023-10-09T07:27:22;102030.47;;;16.21;100.00
78016;BME280;67223;51.102;5.882;2023-10-09T07:30:07;102026.78;;;16.22;100.00
78016;BME280;67223;51.102;5.882;2023-10-09T07:33:05;102037.28;;;16.25;100.00
78016;BME280;67223;51.102;5.882;2023-10-09T07:35:41;102045.13;;;16.28;100.00
78016;BME280;67223;51.102;5.882;2023-10-09T07:40:40;102042.28;;;16.30;100.00
78016;BME280;67223;51.102;5.882;2023-10-09T07:43:31;102035.56;;;16.24;100.00
78016;BME280;67223;51.102;5.882;2023-10-09T07:46:07;102040.25;;;16.22;100.00
78016;BME280;67223;51.102;5.882;2023-10-09T07:48:51;102028.75;;;16.20;100.00
78016;BME280;67223;51.102;5.882;2023-10-09T07:51:20;102028.03;;;16.18;100.00
78016;BME280;67223;51.102;5.882;2023-10-09T07:53:52;102032.34;;;16.30;100.00
78016;BME280;67223;51.102;5.882;2023-10-09T07:56:34;102024.84;;;16.34;100.00
78016;BME280;67223;51.102;5.882;2023-10-09T07:59:09;102016.22;;;16.40;100.00
78016;BME280;67223;51.102;5.882;2023-10-09T08:01:42;102021.09;;;16.46;100.00
78016;BME280;67223;51.102;5.882;2023-10-09T08:04:25;102008.81;;;16.53;100.00
78016;BME280;67223;51.102;5.882;2023-10-09T08:07:12;102000.44;;;16.56;100.00
78016;BME280;67223;51.102;5.882;2023-10-09T08:10:00;101975.59;;;16.53;100.00
78016;BME280;67223;51.102;5.882;2023-10-09T08:12:43;101979.66;;;16.47;100.00
78016;BME280;67223;51.102;5.882;2023-10-09T08:15:16;101987.03;;;16.45;100.00
78016;BME280;67223;51.102;5.882;2023-10-09T08:18:04;101998.13;;;16.52;100.00
78016;BME280;67223;51.102;5.882;2023-10-09T08:20:39;102008.16;;;16.61;100.00
78016;BME280;67223;51.102;5.882;2023-10-09T08:23:36;102017.47;;;16.57;100.00
78016;BME280;67223;51.102;5.882;2023-10-09T08:26:18;102032.75;;;16.67;100.00
78016;BME280;67223;51.102;5.882;2023-10-09T08:29:12;102041.91;;;16.86;100.00
78016;BME280;67223;51.102;5.882;2023-10-09T08:31:44;102045.00;;;16.81;100.00
78016;BME280;67223;51.102;5.882;2023-10-09T08:34:12;102047.88;;;16.89;100.00
78016;BME280;67223;51.102;5.882;2023-10-09T08:36:49;102045.06;;;17.00;100.00
78016;BME280;67223;51.102;5.882;2023-10-09T08:39:21;102047.78;;;17.00;100.00
78016;BME280;67223;51.102;5.882;2023-10-09T08:41:55;102039.69;;;17.10;100.00
78016;BME280;67223;51.102;5.882;2023-10-09T08:44:24;102029.75;;;17.10;100.00
78016;BME280;67223;51.102;5.882;2023-10-09T08:46:50;102023.25;;;17.13;100.00
78016;BME280;67223;51.102;5.882;2023-10-09T08:49:17;102015.28;;;17.11;100.00
78016;BME280;67223;51.102;5.882;2023-10-09T08:51:43;102021.25;;;17.25;100.00
78016;BME280;67223;51.102;5.882;2023-10-09T08:54:11;102017.59;;;17.45;100.00
78016;BME280;67223;51.102;5.882;2023-10-09T08:56:39;102016.41;;;17.68;100.00
78016;BME280;67223;51.102;5.882;2023-10-09T08:59:15;102024.31;;;17.98;100.00
78016;BME280;67223;51.102;5.882;2023-10-09T09:01:44;102016.81;;;17.92;100.00
78016;BME280;67223;51.102;5.882;2023-10-09T09:04:09;102016.94;;;18.00;100.00
78016;BME280;67223;51.102;5.882;2023-10-09T09:06:37;102023.47;;;18.08;100.00
78016;BME280;67223;51.102;5.882;2023-10-09T09:09:10;102027.00;;;18.27;100.00
78016;BME280;67223;51.102;5.882;2023-10-09T09:11:42;102028.88;;;18.17;100.00
78016;BME280;67223;51.102;5.882;2023-10-09T09:14:14;102032.56;;;18.16;100.00
78016;BME280;67223;51.102;5.882;2023-10-09T09:16:45;102032.66;;;18.34;100.00
78016;BME280;67223;51.102;5.882;2023-10-09T09:19:13;102011.84;;;18.44;100.00
78016;BME280;67223;51.102;5.882;2023-10-09T09:21:50;102004.81;;;18.70;100.00
78016;BME280;67223;51.102;5.882;2023-10-09T09:24:35;102009.06;;;19.00;100.00
78016;BME280;67223;51.102;5.882;2023-10-09T09:27:03;101999.28;;;19.17;100.00
78016;BME280;67223;51.102;5.882;2023-10-09T09:32:02;101980.78;;;19.57;100.00
78016;BME280;67223;51.102;5.882;2023-10-09T09:34:51;101961.94;;;19.73;100.00
78016;BME280;67223;51.102;5.882;2023-10-09T09:37:29;101950.78;;;19.76;100.00
78016;BME280;67223;51.102;5.882;2023-10-09T09:39:58;101955.41;;;19.84;100.00
78016;BME280;67223;51.102;5.882;2023-10-09T09:42:28;101951.94;;;19.74;100.00
78016;BME280;67223;51.102;5.882;2023-10-09T09:44:58;101955.41;;;19.84;100.00
78016;BME280;67223;51.102;5.882;2023-10-09T09:47:26;101947.50;;;19.91;100.00
78016;BME280;67223;51.102;5.882;2023-10-09T09:49:55;101951.84;;;19.84;100.00
78016;BME280;67223;51.102;5.882;2023-10-09T09:52:37;101944.94;;;19.89;100.00
78016;BME280;67223;51.102;5.882;2023-10-09T09:55:10;101950.06;;;19.92;100.00
78016;BME280;67223;51.102;5.882;2023-10-09T09:57:48;101945.84;;;19.98;100.00
78016;BME280;67223;51.102;5.882;2023-10-09T10:00:20;101941.97;;;20.00;100.00
78016;BME280;67223;51.102;5.882;2023-10-09T10:03:19;101933.00;;;20.00;100.00
78016;BME280;67223;51.102;5.882;2023-10-09T10:05:46;101932.84;;;20.01;100.00
78016;BME280;67223;51.102;5.882;2023-10-09T10:08:18;101925.84;;;19.99;100.00
78016;BME280;67223;51.102;5.882;2023-10-09T10:10:49;101929.00;;;20.12;100.00
78016;BME280;67223;51.102;5.882;2023-10-09T10:16:14;101922.25;;;20.16;100.00
78016;BME280;67223;51.102;5.882;2023-10-09T10:19:00;101926.81;;;20.15;100.00
78016;BME280;67223;51.102;5.882;2023-10-09T10:21:35;101926.34;;;20.20;100.00
78016;BME280;67223;51.102;5.882;2023-10-09T10:27:16;101926.94;;;20.32;100.00
78016;BME280;67223;51.102;5.882;2023-10-09T10:32:56;101955.97;;;20.39;100.00
78016;BME280;67223;51.102;5.882;2023-10-09T10:35:23;101948.53;;;20.41;100.00
78016;BME280;67223;51.102;5.882;2023-10-09T10:41:18;101956.72;;;20.49;100.00
78016;BME280;67223;51.102;5.882;2023-10-09T10:43:48;101963.72;;;20.60;100.00
78016;BME280;67223;51.102;5.882;2023-10-09T10:46:14;101971.72;;;20.70;100.00
78016;BME280;67223;51.102;5.882;2023-10-09T10:49:02;101968.69;;;20.73;100.00
78016;BME280;67223;51.102;5.882;2023-10-09T10:51:47;101973.94;;;20.66;100.00
78016;BME280;67223;51.102;5.882;2023-10-09T10:54:23;101979.03;;;20.69;100.00
78016;BME280;67223;51.102;5.882;2023-10-09T10:57:20;101972.94;;;20.67;100.00
78016;BME280;67223;51.102;5.882;2023-10-09T11:00:11;101987.38;;;20.76;100.00
78016;BME280;67223;51.102;5.882;2023-10-09T11:02:55;101980.59;;;20.80;100.00
78016;BME280;67223;51.102;5.882;2023-10-09T11:05:40;101976.22;;;20.87;100.00
78016;BME280;67223;51.102;5.882;2023-10-09T11:08:09;101973.16;;;20.82;100.00
78016;BME280;67223;51.102;5.882;2023-10-09T11:10:35;101972.16;;;20.91;100.00
78016;BME280;67223;51.102;5.882;2023-10-09T11:13:00;101974.59;;;21.02;100.00
78016;BME280;67223;51.102;5.882;2023-10-09T11:15:37;101977.44;;;21.00;100.00
78016;BME280;67223;51.102;5.882;2023-10-09T11:18:15;101981.19;;;20.99;100.00
78016;BME280;67223;51.102;5.882;2023-10-09T11:20:56;101983.06;;;21.07;100.00
78016;BME280;67223;51.102;5.882;2023-10-09T11:23:28;101983.59;;;21.11;100.00
78016;BME280;67223;51.102;5.882;2023-10-09T11:26:04;101978.16;;;21.11;100.00
78016;BME280;67223;51.102;5.882;2023-10-09T11:29:11;101984.44;;;21.11;100.00
78016;BME280;67223;51.102;5.882;2023-10-09T11:31:59;101981.06;;;21.17;100.00
78016;BME280;67223;51.102;5.882;2023-10-09T11:34:25;101976.00;;;21.14;100.00
78016;BME280;67223;51.102;5.882;2023-10-09T11:37:14;101964.13;;;21.15;100.00
78016;BME280;67223;51.102;5.882;2023-10-09T11:39:57;101967.34;;;21.19;100.00
78016;BME280;67223;51.102;5.882;2023-10-09T11:42:24;101961.25;;;21.17;100.00
78016;BME280;67223;51.102;5.882;2023-10-09T11:45:21;101961.91;;;21.19;100.00
78016;BME280;67223;51.102;5.882;2023-10-09T11:47:54;101953.59;;;21.20;100.00
78016;BME280;67223;51.102;5.882;2023-10-09T11:50:47;101949.19;;;21.19;100.00
78016;BME280;67223;51.102;5.882;2023-10-09T11:53:18;101958.34;;;21.18;100.00
78016;BME280;67223;51.102;5.882;2023-10-09T11:55:47;101968.53;;;21.24;100.00
78016;BME280;67223;51.102;5.882;2023-10-09T11:58:16;101958.38;;;21.26;100.00
78016;BME280;67223;51.102;5.882;2023-10-09T12:00:58;101954.81;;;21.26;100.00
78016;BME280;67223;51.102;5.882;2023-10-09T12:03:30;101946.16;;;21.30;100.00
78016;BME280;67223;51.102;5.882;2023-10-09T12:05:57;101942.91;;;21.27;100.00
78016;BME280;67223;51.102;5.882;2023-10-09T12:08:24;101948.69;;;21.32;100.00
78016;BME280;67223;51.102;5.882;2023-10-09T12:10:52;101943.59;;;21.29;100.00
78016;BME280;67223;51.102;5.882;2023-10-09T12:13:21;101941.56;;;21.31;100.00
78016;BME280;67223;51.102;5.882;2023-10-09T12:15:48;101937.66;;;21.33;100.00
78016;BME280;67223;51.102;5.882;2023-10-09T12:18:13;101935.47;;;21.37;100.00
78016;BME280;67223;51.102;5.882;2023-10-09T12:20:43;101934.94;;;21.41;100.00
78016;BME280;67223;51.102;5.882;2023-10-09T12:23:21;101938.34;;;21.35;100.00
78016;BME280;67223;51.102;5.882;2023-10-09T12:25:52;101938.84;;;21.39;100.00
78016;BME280;67223;51.102;5.882;2023-10-09T12:28:22;101937.66;;;21.41;100.00
78016;BME280;67223;51.102;5.882;2023-10-09T12:30:48;101930.19;;;21.43;100.00
78016;BME280;67223;51.102;5.882;2023-10-09T12:33:18;101934.41;;;21.38;100.00
78016;BME280;67223;51.102;5.882;2023-10-09T12:35:44;101935.97;;;21.40;100.00
78016;BME280;67223;51.102;5.882;2023-10-09T12:38:11;101933.91;;;21.42;100.00
78016;BME280;67223;51.102;5.882;2023-10-09T12:40:38;101930.69;;;21.39;100.00
78016;BME280;67223;51.102;5.882;2023-10-09T12:43:06;101931.69;;;21.38;100.00
78016;BME280;67223;51.102;5.882;2023-10-09T12:45:35;101938.34;;;21.35;100.00
78016;BME280;67223;51.102;5.882;2023-10-09T12:48:01;101932.06;;;21.35;100.00
78016;BME280;67223;51.102;5.882;2023-10-09T12:50:34;101928.66;;;21.41;100.00
78016;BME280;67223;51.102;5.882;2023-10-09T12:53:00;101928.16;;;21.45;100.00
78016;BME280;67223;51.102;5.882;2023-10-09T12:55:38;101939.34;;;21.42;100.00
78016;BME280;67223;51.102;5.882;2023-10-09T12:58:08;101930.84;;;21.37;100.00
78016;BME280;67223;51.102;5.882;2023-10-09T13:00:35;101939.19;;;21.36;100.00
78016;BME280;67223;51.102;5.882;2023-10-09T13:03:06;101935.28;;;21.38;100.00
78016;BME280;67223;51.102;5.882;2023-10-09T13:05:51;101939.19;;;21.36;100.00
78016;BME280;67223;51.102;5.882;2023-10-09T13:08:26;101943.25;;;21.40;100.00
78016;BME280;67223;51.102;5.882;2023-10-09T13:11:04;101956.00;;;21.39;100.00
78016;BME280;67223;51.102;5.882;2023-10-09T13:13:39;101957.50;;;21.42;100.00
78016;BME280;67223;51.102;5.882;2023-10-09T13:16:21;101954.13;;;21.40;100.00
78016;BME280;67223;51.102;5.882;2023-10-09T13:18:50;101945.81;;;21.41;100.00
78016;BME280;67223;51.102;5.882;2023-10-09T13:21:17;101933.56;;;21.37;100.00
78016;BME280;67223;51.102;5.882;2023-10-09T13:23:43;101936.97;;;21.39;100.00
78016;BME280;67223;51.102;5.882;2023-10-09T13:26:15;101936.47;;;21.36;100.00
78016;BME280;67223;51.102;5.882;2023-10-09T13:28:48;101927.63;;;21.42;100.00
78016;BME280;67223;51.102;5.882;2023-10-09T13:31:15;101935.28;;;21.38;100.00
78016;BME280;67223;51.102;5.882;2023-10-09T13:33:41;101937.47;;;21.35;100.00
78016;BME280;67223;51.102;5.882;2023-10-09T13:36:10;101930.84;;;21.37;100.00
78016;BME280;67223;51.102;5.882;2023-10-09T13:38:45;101935.47;;;21.37;100.00